Time;durP1;ratioP1;P1;durP2;ratioP2;P2;SDS_P1;SDS_P2;PMS_P1;PMS_P2;Temp;Humidity;BMP_temperature;BMP_pressure;BME280_temperature;BME280_humidity;BME280_pressure;Samples;Min_cycle;Max_cycle;Signal;HPM_P1;HPM_P2
2023/08/24 00:01:58;;;;;;;3.40;2.80;;;;;;;17.71;78.67;100816.43;105510;1257;81738;-58
2023/08/24 00:04:25;;;;;;;4.60;2.70;;;;;;;17.68;78.75;100816.09;105497;1257;72647;-58
2023/08/24 00:06:52;;;;;;;5.90;2.90;;;;;;;17.62;78.72;100814.50;105450;1254;69073;-58
2023/08/24 00:09:20;;;;;;;4.00;2.70;;;;;;;17.56;78.97;100813.80;105534;1254;69103;-58
2023/08/24 00:11:47;;;;;;;5.70;3.00;;;;;;;17.50;79.16;100806.73;105573;1254;75097;-58
2023/08/24 00:14:13;;;;;;;3.50;2.50;;;;;;;17.46;79.36;100810.54;105474;1254;81976;-58
2023/08/24 00:16:40;;;;;;;4.50;2.80;;;;;;;17.42;79.52;100811.84;105444;1256;71695;-59
2023/08/24 00:19:07;;;;;;;4.30;2.90;;;;;;;17.34;79.76;100811.55;105473;1253;69299;-58
2023/08/24 00:21:35;;;;;;;4.40;3.00;;;;;;;17.28;79.96;100810.48;105490;1254;69262;-58
2023/08/24 00:24:02;;;;;;;4.90;3.00;;;;;;;17.26;80.17;100809.06;105521;1256;75072;-58
2023/08/24 00:26:29;;;;;;;5.30;2.80;;;;;;;17.22;80.44;100808.95;105535;1257;83149;-58
2023/08/24 00:28:56;;;;;;;4.00;2.80;;;;;;;17.18;80.60;100808.26;105447;1256;73660;-58
2023/08/24 00:31:23;;;;;;;5.40;3.00;;;;;;;17.13;80.77;100814.73;105397;1253;69570;-58
2023/08/24 00:33:50;;;;;;;6.80;3.40;;;;;;;17.08;80.88;100814.13;105473;1256;69183;-58
2023/08/24 00:36:22;;;;;;;7.00;3.40;;;;;;;17.05;81.16;100816.45;105483;1256;74919;-58
2023/08/24 00:38:51;;;;;;;7.30;3.20;;;;;;;17.01;81.27;100813.69;105559;1254;83131;-58
2023/08/24 00:41:18;;;;;;;5.40;3.20;;;;;;;16.96;81.53;100813.41;105542;1257;72792;-58
2023/08/24 00:43:46;;;;;;;3.60;2.50;;;;;;;16.93;81.63;100815.34;105446;1254;69173;-58
2023/08/24 00:46:13;;;;;;;5.80;3.00;;;;;;;16.88;81.60;100811.02;105495;1256;69218;-58
2023/08/24 00:48:40;;;;;;;4.90;3.00;;;;;;;16.82;81.53;100812.09;105497;1256;73773;-58
2023/08/24 00:51:07;;;;;;;6.30;3.10;;;;;;;16.74;81.62;100810.72;105420;1254;83329;-58
2023/08/24 00:53:35;;;;;;;7.30;2.70;;;;;;;16.69;82.03;100809.61;105482;1254;72689;-58
2023/08/24 00:56:03;;;;;;;4.40;2.90;;;;;;;16.67;82.12;100807.07;105359;1253;69208;-58
2023/08/24 00:58:31;;;;;;;6.10;3.20;;;;;;;16.61;82.09;100804.95;105613;1253;69413;-58
2023/08/24 01:00:58;;;;;;;4.90;3.40;;;;;;;16.56;82.27;100804.35;105509;1256;73755;-58
2023/08/24 01:03:26;;;;;;;5.30;3.20;;;;;;;16.50;82.51;100812.23;105578;1253;83302;-58
2023/08/24 01:05:53;;;;;;;4.50;3.10;;;;;;;16.45;82.62;100814.44;105505;1255;73597;-58
2023/08/24 01:08:21;;;;;;;5.60;3.30;;;;;;;16.40;82.69;100813.13;105496;1253;69212;-58
2023/08/24 01:10:54;;;;;;;3.30;2.70;;;;;;;16.36;82.79;100815.67;105425;1259;69291;-58
2023/08/24 01:13:32;;;;;;;5.50;3.10;;;;;;;16.28;82.81;100813.25;105549;1256;75122;-58
2023/08/24 01:16:09;;;;;;;5.50;2.70;;;;;;;16.20;83.04;100814.43;105525;1256;83466;-58
2023/08/24 01:18:39;;;;;;;5.10;3.30;;;;;;;16.14;83.25;100811.02;105448;1256;72979;-59
2023/08/24 01:21:06;;;;;;;5.20;2.70;;;;;;;16.11;83.51;100811.39;105422;1254;69094;-59
2023/08/24 01:23:42;;;;;;;5.80;2.80;;;;;;;16.07;83.72;100811.73;105441;1254;69228;-59
2023/08/24 01:26:13;;;;;;;6.80;2.90;;;;;;;16.02;83.76;100813.08;105380;1254;74864;-59
2023/08/24 01:28:43;;;;;;;4.60;2.70;;;;;;;15.98;83.98;100815.21;105498;1254;82202;-59
2023/08/24 01:31:10;;;;;;;5.80;3.00;;;;;;;15.95;84.12;100814.67;105500;1253;72639;-59
2023/08/24 01:33:39;;;;;;;4.40;3.00;;;;;;;15.90;84.12;100814.94;105421;1257;69118;-58
2023/08/24 01:36:08;;;;;;;4.20;2.70;;;;;;;15.86;84.45;100813.92;105521;1254;69096;-59
2023/08/24 01:38:35;;;;;;;5.70;3.00;;;;;;;15.84;84.41;100815.27;105568;1257;74986;-58
2023/08/24 01:41:31;;;;;;;5.90;3.00;;;;;;;15.80;84.54;100813.86;105421;1254;81572;-59
2023/08/24 01:43:59;;;;;;;5.80;3.10;;;;;;;15.76;84.81;100808.98;105482;1254;72583;-59
2023/08/24 01:46:26;;;;;;;4.10;3.10;;;;;;;15.73;84.80;100811.27;105537;1255;69040;-58
2023/08/24 01:48:54;;;;;;;5.30;3.30;;;;;;;15.69;85.02;100811.81;105419;1257;69858;-59
2023/08/24 01:51:23;;;;;;;4.30;2.80;;;;;;;15.67;85.18;100814.20;105434;1253;74779;-59
2023/08/24 01:53:50;;;;;;;3.50;2.90;;;;;;;15.65;85.26;100817.48;105429;1254;83649;-59
2023/08/24 01:56:17;;;;;;;4.60;2.90;;;;;;;15.61;85.29;100822.04;105518;1254;73637;-58
2023/08/24 01:58:44;;;;;;;6.10;3.30;;;;;;;15.60;85.64;100817.52;105505;1254;69105;-58
2023/08/24 02:01:12;;;;;;;4.50;3.10;;;;;;;15.61;85.82;100817.15;105439;1254;69183;-59
2023/08/24 02:03:39;;;;;;;5.40;3.50;;;;;;;15.59;85.80;100818.47;105527;1254;75136;-59
2023/08/24 02:06:08;;;;;;;4.70;2.90;;;;;;;15.59;86.10;100820.73;105577;1254;82403;-59
2023/08/24 02:08:35;;;;;;;3.60;3.20;;;;;;;15.59;86.03;100819.52;105525;1254;73668;-58
2023/08/24 02:11:03;;;;;;;5.10;3.10;;;;;;;15.56;85.99;100818.77;105514;1254;69266;-58
2023/08/24 02:13:32;;;;;;;5.10;2.90;;;;;;;15.60;86.36;100815.94;105596;1254;69180;-58
2023/08/24 02:16:04;;;;;;;4.40;2.70;;;;;;;15.64;86.70;100810.64;105575;1254;74282;-59
2023/08/24 02:18:31;;;;;;;5.20;3.00;;;;;;;15.67;86.71;100812.06;105517;1254;83349;-59
2023/08/24 02:20:58;;;;;;;6.00;2.90;;;;;;;15.69;86.70;100814.27;105421;1257;72658;-59
2023/08/24 02:23:25;;;;;;;3.90;2.60;;;;;;;15.69;86.44;100816.05;105538;1254;69518;-58
2023/08/24 02:25:52;;;;;;;5.30;2.60;;;;;;;15.65;86.28;100818.48;105486;1256;69207;-58
2023/08/24 02:28:19;;;;;;;5.20;3.10;;;;;;;15.65;86.55;100819.55;105556;1255;75004;-59
2023/08/24 02:30:47;;;;;;;4.90;2.80;;;;;;;15.70;86.90;100818.09;105551;1254;82658;-59
2023/08/24 02:33:17;;;;;;;4.70;3.60;;;;;;;15.75;87.27;100818.36;105480;1256;72798;-59
2023/08/24 02:35:47;;;;;;;4.20;3.20;;;;;;;15.80;87.39;100814.95;105475;1254;69298;-58
2023/08/24 02:38:14;;;;;;;5.90;3.40;;;;;;;15.86;87.76;100815.33;105435;1257;69122;-59
2023/08/24 02:40:41;;;;;;;4.80;3.40;;;;;;;15.91;87.62;100819.14;105479;1254;74801;-58
2023/08/24 02:43:08;;;;;;;3.80;3.00;;;;;;;15.98;87.84;100816.80;105497;1254;83852;-59
2023/08/24 02:45:35;;;;;;;4.90;3.20;;;;;;;16.06;87.98;100817.83;105481;1256;73996;-59
2023/08/24 02:48:03;;;;;;;5.70;2.90;;;;;;;16.12;88.05;100815.92;105506;1256;69160;-59
2023/08/24 02:50:30;;;;;;;4.70;2.80;;;;;;;16.22;88.13;100809.21;105548;1254;69000;-59
2023/08/24 02:53:01;;;;;;;6.80;3.00;;;;;;;16.26;87.83;100807.55;105524;1256;74789;-59
2023/08/24 02:55:32;;;;;;;3.30;2.70;;;;;;;16.25;87.33;100805.86;105527;1254;81881;-59
2023/08/24 02:57:59;;;;;;;8.20;3.30;;;;;;;16.19;86.97;100804.75;105539;1257;72013;-57
2023/08/24 03:00:25;;;;;;;5.50;3.70;;;;;;;16.16;86.96;100806.90;105473;1256;69183;-56
2023/08/24 03:02:53;;;;;;;5.40;2.80;;;;;;;16.12;86.87;100807.61;105550;1256;69051;-56
2023/08/24 03:05:20;;;;;;;4.00;3.40;;;;;;;16.06;86.70;100806.52;105524;1254;75001;-57
2023/08/24 03:07:47;;;;;;;4.10;2.80;;;;;;;16.01;86.93;100806.63;105478;1254;83442;-57
2023/08/24 03:10:15;;;;;;;5.20;3.00;;;;;;;15.99;87.07;100806.35;105427;1254;73415;-57
2023/08/24 03:12:42;;;;;;;6.10;3.50;;;;;;;15.94;86.95;100809.61;105492;1254;69339;-57
2023/08/24 03:15:08;;;;;;;4.30;3.20;;;;;;;15.89;87.04;100808.66;105497;1254;69172;-58
2023/08/24 03:17:35;;;;;;;5.50;3.30;;;;;;;15.87;87.26;100809.48;105517;1254;74876;-56
2023/08/24 03:20:03;;;;;;;4.90;3.40;;;;;;;15.83;87.03;100811.08;105496;1254;82412;-56
2023/08/24 03:22:30;;;;;;;4.00;3.20;;;;;;;15.79;87.24;100813.08;105456;1254;73914;-57
2023/08/24 03:24:57;;;;;;;3.90;3.10;;;;;;;15.78;87.48;100813.26;105457;1254;69097;-57
2023/08/24 03:27:24;;;;;;;3.30;3.00;;;;;;;15.77;87.63;100811.89;105566;1256;69192;-57
2023/08/24 03:29:54;;;;;;;3.30;3.00;;;;;;;15.78;87.80;100814.19;105505;1254;75031;-56
2023/08/24 03:32:21;;;;;;;5.00;3.50;;;;;;;15.77;87.93;100817.02;105559;1256;82385;-57
2023/08/24 03:34:48;;;;;;;4.70;3.50;;;;;;;15.74;87.80;100815.45;105468;1253;73654;-56
2023/08/24 03:37:15;;;;;;;5.70;3.50;;;;;;;15.69;87.84;100816.20;105491;1254;69254;-57
2023/08/24 03:39:42;;;;;;;5.00;3.20;;;;;;;15.66;88.00;100812.46;105476;1257;69122;-57
2023/08/24 03:42:09;;;;;;;5.30;3.80;;;;;;;15.67;88.48;100810.83;105422;1254;73854;-57
2023/08/24 03:44:36;;;;;;;4.30;3.30;;;;;;;15.69;88.62;100814.45;105495;1256;83478;-59
2023/08/24 03:47:04;;;;;;;4.30;3.70;;;;;;;15.70;88.63;100814.60;105439;1257;72526;-59
2023/08/24 03:49:31;;;;;;;4.90;3.50;;;;;;;15.66;88.48;100814.44;105522;1252;69238;-58
2023/08/24 03:51:57;;;;;;;3.80;3.10;;;;;;;15.62;88.57;100813.88;105500;1253;69180;-58
2023/08/24 03:54:24;;;;;;;4.50;3.30;;;;;;;15.61;88.85;100817.84;105429;1253;74822;-58
2023/08/24 03:56:51;;;;;;;4.40;3.70;;;;;;;15.59;88.78;100813.86;105402;1257;83224;-58
2023/08/24 03:59:20;;;;;;;6.10;3.90;;;;;;;15.55;88.72;100813.02;105515;1253;72737;-59
2023/08/24 04:01:47;;;;;;;4.40;3.50;;;;;;;15.52;88.94;100819.16;105506;1254;69111;-58
2023/08/24 04:04:14;;;;;;;4.20;3.40;;;;;;;15.51;88.99;100819.23;105479;1256;69192;-58
2023/08/24 04:06:41;;;;;;;6.00;3.70;;;;;;;15.48;89.29;100820.62;105432;1254;74989;-58
2023/08/24 04:09:09;;;;;;;4.70;3.30;;;;;;;15.50;89.72;100826.99;105458;1255;82504;-59
2023/08/24 04:11:36;;;;;;;4.00;3.60;;;;;;;15.50;89.62;100828.95;105501;1254;72504;-58
2023/08/24 04:14:02;;;;;;;7.60;3.40;;;;;;;15.48;89.61;100831.53;105478;1253;69079;-58
2023/08/24 04:16:29;;;;;;;5.50;3.40;;;;;;;15.50;89.80;100835.32;105413;1257;69195;-58
2023/08/24 04:18:56;;;;;;;4.10;3.40;;;;;;;15.50;89.91;100834.23;105465;1253;74841;-58
2023/08/24 04:21:23;;;;;;;8.70;4.20;;;;;;;15.53;90.49;100834.46;105492;1254;82792;-58
2023/08/24 04:23:50;;;;;;;4.10;3.70;;;;;;;15.60;91.10;100836.90;105506;1254;73726;-58
2023/08/24 04:26:17;;;;;;;5.20;3.70;;;;;;;15.65;91.49;100839.12;105470;1254;69170;-58
2023/08/24 04:28:44;;;;;;;5.40;3.90;;;;;;;15.74;91.93;100842.04;105486;1256;69278;-58
2023/08/24 04:31:10;;;;;;;6.50;3.50;;;;;;;15.84;92.19;100841.38;105488;1256;75117;-59
2023/08/24 04:33:37;;;;;;;4.60;3.50;;;;;;;15.90;92.21;100838.57;105477;1254;82820;-58
2023/08/24 04:36:04;;;;;;;6.00;3.50;;;;;;;15.98;92.12;100839.34;105442;1256;73207;-58
2023/08/24 04:38:31;;;;;;;6.10;4.20;;;;;;;16.06;91.94;100844.09;105539;1254;69132;-58
2023/08/24 04:40:58;;;;;;;5.50;3.80;;;;;;;16.12;91.83;100843.06;105514;1254;69164;-58
2023/08/24 04:43:25;;;;;;;5.90;4.10;;;;;;;16.21;92.12;100842.74;105485;1253;73989;-58
2023/08/24 04:45:54;;;;;;;5.80;3.80;;;;;;;16.27;91.68;100842.60;105504;1256;83097;-58
2023/08/24 04:48:23;;;;;;;5.40;3.90;;;;;;;16.37;91.65;100841.00;105564;1254;73570;-58
2023/08/24 04:50:50;;;;;;;4.90;3.50;;;;;;;16.50;91.52;100839.42;105550;1254;69256;-58
2023/08/24 04:53:18;;;;;;;6.00;3.30;;;;;;;16.59;91.25;100836.79;105615;1254;69170;-59
2023/08/24 04:55:45;;;;;;;5.60;3.80;;;;;;;16.68;90.92;100837.15;105509;1254;73925;-58
2023/08/24 04:58:16;;;;;;;5.50;3.80;;;;;;;16.73;90.73;100834.45;105466;1254;82420;-60
2023/08/24 05:00:43;;;;;;;5.40;3.50;;;;;;;16.81;90.79;100837.41;105601;1253;73616;-57
2023/08/24 05:03:10;;;;;;;3.60;3.10;;;;;;;16.91;90.85;100840.90;105808;1256;69039;-58
2023/08/24 05:05:38;;;;;;;5.70;3.60;;;;;;;17.02;90.83;100837.27;105751;1255;69285;-55
2023/08/24 05:08:11;;;;;;;10.80;4.10;;;;;;;17.11;90.36;100833.89;105685;1255;73630;-58
2023/08/24 05:10:40;;;;;;;5.40;3.60;;;;;;;17.21;90.20;100834.04;105631;1256;83369;-57
2023/08/24 05:13:07;;;;;;;8.00;3.20;;;;;;;17.27;89.57;100836.35;105725;1254;73621;-57
2023/08/24 05:15:34;;;;;;;5.60;3.30;;;;;;;17.33;89.23;100837.59;105603;1254;69179;-57
2023/08/24 05:18:01;;;;;;;6.10;3.90;;;;;;;17.38;88.71;100839.06;105748;1255;69205;-57
2023/08/24 05:20:28;;;;;;;7.60;4.10;;;;;;;17.44;88.44;100838.55;105702;1254;74703;-55
2023/08/24 05:22:55;;;;;;;6.00;3.90;;;;;;;17.49;88.20;100840.70;105783;1256;83376;-57
2023/08/24 05:25:22;;;;;;;4.40;3.20;;;;;;;17.54;87.85;100841.48;105806;1254;73650;-57
2023/08/24 05:27:49;;;;;;;6.10;3.10;;;;;;;17.60;87.68;100844.13;105546;1252;69182;-56
2023/08/24 05:30:17;;;;;;;4.40;3.10;;;;;;;17.64;87.21;100848.84;105729;1255;69109;-56
2023/08/24 05:32:44;;;;;;;5.90;3.30;;;;;;;17.69;86.79;100847.85;105506;1256;73783;-57
2023/08/24 05:35:11;;;;;;;5.70;3.50;;;;;;;17.75;86.74;100850.50;105775;1257;83145;-56
2023/08/24 05:37:39;;;;;;;6.80;3.50;;;;;;;17.79;86.43;100851.66;105584;1254;73787;-57
2023/08/24 05:40:06;;;;;;;6.40;3.20;;;;;;;17.83;86.17;100854.10;105556;1254;69601;-57
2023/08/24 05:42:33;;;;;;;6.20;3.50;;;;;;;17.88;85.97;100852.05;105851;1255;69113;-57
2023/08/24 05:45:00;;;;;;;4.80;3.10;;;;;;;17.93;85.75;100854.92;105626;1254;73776;-57
2023/08/24 05:47:27;;;;;;;6.30;3.60;;;;;;;17.97;85.52;100852.05;105719;1256;83286;-57
2023/08/24 05:49:54;;;;;;;8.40;4.10;;;;;;;18.01;85.38;100856.70;105807;1254;73893;-57
2023/08/24 05:52:21;;;;;;;5.20;3.40;;;;;;;18.06;85.18;100858.53;105666;1256;69201;-56
2023/08/24 05:54:48;;;;;;;5.70;3.10;;;;;;;18.12;85.09;100860.15;105652;1254;69109;-57
2023/08/24 05:57:16;;;;;;;4.50;3.00;;;;;;;18.17;84.76;100864.77;105574;1254;73693;-58
2023/08/24 05:59:42;;;;;;;6.30;3.00;;;;;;;18.20;84.57;100862.43;105627;1255;82296;-57
2023/08/24 06:02:09;;;;;;;6.30;3.10;;;;;;;18.25;84.54;100855.97;105650;1254;74053;-57
2023/08/24 06:04:36;;;;;;;5.60;3.40;;;;;;;18.31;84.49;100857.52;105610;1254;69108;-57
2023/08/24 06:07:04;;;;;;;5.40;3.50;;;;;;;18.37;84.27;100856.30;105643;1254;69116;-56
2023/08/24 06:09:31;;;;;;;5.30;3.00;;;;;;;18.42;83.98;100855.63;105526;1254;74865;-56
2023/08/24 06:11:58;;;;;;;4.80;3.20;;;;;;;18.47;83.86;100851.77;105591;1257;83177;-56
2023/08/24 06:14:25;;;;;;;6.60;3.00;;;;;;;18.52;83.82;100853.39;105500;1257;73872;-58
2023/08/24 06:16:53;;;;;;;6.50;3.40;;;;;;;18.57;83.61;100851.83;105534;1251;69166;-58
2023/08/24 06:19:20;;;;;;;7.10;3.60;;;;;;;18.61;83.38;100846.81;105490;1255;69209;-59
2023/08/24 06:21:47;;;;;;;5.90;3.50;;;;;;;18.67;83.49;100849.42;105576;1256;75162;-58
2023/08/24 06:24:14;;;;;;;7.10;3.20;;;;;;;18.73;83.23;100850.11;105534;1256;83267;-58
2023/08/24 06:26:41;;;;;;;6.10;3.60;;;;;;;18.79;83.27;100845.17;105885;1251;73629;-58
2023/08/24 06:29:08;;;;;;;4.60;3.10;;;;;;;18.86;83.21;100844.90;105666;1254;69144;-58
2023/08/24 06:31:35;;;;;;;5.60;3.10;;;;;;;18.94;83.15;100842.60;105594;1256;69195;-59
2023/08/24 06:34:02;;;;;;;5.80;3.00;;;;;;;19.03;83.23;100840.11;105836;1254;73424;-58
2023/08/24 06:36:29;;;;;;;5.50;3.10;;;;;;;19.10;83.17;100838.69;105642;1256;82558;-58
2023/08/24 06:38:57;;;;;;;5.40;3.20;;;;;;;19.17;82.94;100840.71;105616;1254;73893;-58
2023/08/24 06:41:24;;;;;;;5.50;3.40;;;;;;;19.23;82.68;100838.91;105679;1255;70880;-59
2023/08/24 06:43:53;;;;;;;3.60;3.20;;;;;;;19.30;82.82;100838.99;105639;1256;69176;-59
2023/08/24 06:46:21;;;;;;;5.60;3.50;;;;;;;19.36;82.86;100833.83;105839;1254;74801;-57
2023/08/24 06:48:48;;;;;;;5.00;3.20;;;;;;;19.45;82.95;100832.31;105624;1254;82289;-56
2023/08/24 06:51:16;;;;;;;6.30;3.40;;;;;;;19.53;82.76;100828.55;105637;1255;73512;-58
2023/08/24 06:53:43;;;;;;;5.90;3.60;;;;;;;19.61;82.46;100826.63;105687;1253;69141;-56
2023/08/24 06:56:10;;;;;;;7.90;3.40;;;;;;;19.69;82.16;100826.87;105648;1256;69193;-57
2023/08/24 06:58:37;;;;;;;6.40;3.00;;;;;;;19.76;81.69;100826.19;105613;1256;74782;-57
2023/08/24 07:01:06;;;;;;;5.20;3.00;;;;;;;19.81;81.44;100827.55;105577;1256;83094;-57
2023/08/24 07:03:34;;;;;;;4.50;3.20;;;;;;;19.89;81.30;100829.59;105725;1252;73884;-56
2023/08/24 07:06:01;;;;;;;11.00;3.00;;;;;;;19.97;81.54;100831.83;105667;1255;69182;-58
2023/08/24 07:08:28;;;;;;;6.00;3.10;;;;;;;20.06;81.14;100832.05;105626;1256;69084;-57
2023/08/24 07:10:54;;;;;;;3.70;2.70;;;;;;;20.14;80.81;100830.83;105489;1254;73758;-57
2023/08/24 07:13:21;;;;;;;5.30;3.10;;;;;;;20.22;80.98;100832.19;105695;1256;83401;-58
2023/08/24 07:15:49;;;;;;;6.50;3.00;;;;;;;20.34;80.94;100831.72;105686;1254;72631;-57
2023/08/24 07:18:16;;;;;;;5.30;2.90;;;;;;;20.44;80.58;100834.55;105685;1254;69192;-57
2023/08/24 07:20:44;;;;;;;5.20;2.60;;;;;;;20.51;80.12;100834.02;106017;1255;69154;-57
2023/08/24 07:23:11;;;;;;;7.10;2.70;;;;;;;20.59;79.72;100838.48;105607;1254;73739;-60
2023/08/24 07:25:38;;;;;;;5.40;3.00;;;;;;;20.68;79.41;100834.59;105705;1255;83372;-57
2023/08/24 07:28:05;;;;;;;8.90;2.80;;;;;;;20.76;79.27;100832.82;105617;1257;72598;-58
2023/08/24 07:30:32;;;;;;;5.10;2.60;;;;;;;20.85;79.32;100834.13;105760;1254;69138;-57
2023/08/24 07:33:03;;;;;;;9.10;3.10;;;;;;;20.98;79.21;100835.29;105786;1256;69151;-58
2023/08/24 07:35:30;;;;;;;6.20;3.20;;;;;;;21.05;78.68;100834.41;105684;1256;73921;-58
2023/08/24 07:37:57;;;;;;;4.30;2.50;;;;;;;21.11;78.32;100835.88;105683;1256;83600;-58
2023/08/24 07:40:24;;;;;;;5.30;2.60;;;;;;;21.20;78.24;100836.84;105640;1254;73609;-58
2023/08/24 07:42:56;;;;;;;6.60;2.80;;;;;;;21.28;78.03;100837.13;105873;1255;69196;-58
2023/08/24 07:45:26;;;;;;;7.20;2.60;;;;;;;21.39;77.82;100837.20;105761;1256;69268;-58
2023/08/24 07:47:53;;;;;;;4.30;3.00;;;;;;;21.49;77.74;100842.11;105664;1254;74772;-60
2023/08/24 07:50:22;;;;;;;4.40;2.50;;;;;;;21.61;77.20;100841.77;105700;1255;82626;-59
2023/08/24 07:52:49;;;;;;;4.40;2.50;;;;;;;21.71;77.05;100836.40;105788;1254;73835;-60
2023/08/24 07:55:16;;;;;;;4.80;2.80;;;;;;;21.77;76.48;100838.91;105643;1254;69073;-60
2023/08/24 07:57:43;;;;;;;7.10;2.80;;;;;;;21.85;76.23;100843.14;105395;1257;314310;-60
2023/08/24 08:00:13;;;;;;;3.20;2.70;;;;;;;21.93;76.02;100840.23;105625;1256;75099;-60
2023/08/24 08:02:40;;;;;;;3.00;2.30;;;;;;;22.02;75.84;100841.09;105727;1256;82256;-58
2023/08/24 08:05:07;;;;;;;6.10;2.80;;;;;;;22.15;75.55;100848.14;105823;1251;72465;-59
2023/08/24 08:07:34;;;;;;;3.40;2.20;;;;;;;22.23;74.71;100845.91;105561;1256;69189;-59
2023/08/24 08:10:02;;;;;;;5.30;2.10;;;;;;;22.29;74.15;100842.92;105734;1253;69193;-59
2023/08/24 08:12:31;;;;;;;3.60;2.30;;;;;;;22.36;74.00;100844.64;105850;1254;73897;-59
2023/08/24 08:14:58;;;;;;;3.90;2.20;;;;;;;22.48;73.70;100848.91;105691;1254;82481;-59
2023/08/24 08:17:27;;;;;;;3.00;1.90;;;;;;;22.57;72.89;100850.46;105800;1255;72494;-60
2023/08/24 08:19:55;;;;;;;5.80;2.20;;;;;;;22.65;72.85;100851.79;105706;1254;69135;-59
2023/08/24 08:22:23;;;;;;;5.40;2.50;;;;;;;22.80;72.52;100851.83;105686;1254;69107;-60
2023/08/24 08:24:50;;;;;;;4.30;2.10;;;;;;;22.90;71.94;100852.58;105651;1255;74280;-59
2023/08/24 08:27:17;;;;;;;5.00;2.00;;;;;;;22.99;71.65;100851.04;105650;1254;82623;-60
2023/08/24 08:29:44;;;;;;;4.70;2.10;;;;;;;23.08;71.26;100850.08;105608;1254;72566;-59
2023/08/24 08:32:12;;;;;;;3.20;1.80;;;;;;;23.21;70.71;100846.02;105605;1256;69070;-58
2023/08/24 08:34:39;;;;;;;2.50;1.60;;;;;;;23.34;70.21;100847.91;105767;1256;69925;-59
2023/08/24 08:37:06;;;;;;;2.90;1.60;;;;;;;23.44;69.49;100849.62;105659;1254;74771;-59
2023/08/24 08:39:33;;;;;;;4.20;2.00;;;;;;;23.53;68.66;100850.27;105679;1254;83171;-59
2023/08/24 08:42:01;;;;;;;3.80;1.70;;;;;;;23.63;67.83;100847.44;105646;1256;73824;-63
2023/08/24 08:44:32;;;;;;;3.40;1.80;;;;;;;23.70;67.14;100843.48;105678;1254;69220;-58
2023/08/24 08:46:59;;;;;;;4.10;1.70;;;;;;;23.73;66.60;100846.60;105655;1256;69937;-58
2023/08/24 08:49:29;;;;;;;2.60;1.80;;;;;;;23.78;66.32;100844.80;105593;1256;74036;-58
2023/08/24 08:51:56;;;;;;;4.50;1.80;;;;;;;23.87;65.92;100843.33;105713;1256;82897;-58
2023/08/24 08:54:23;;;;;;;3.20;1.90;;;;;;;23.99;65.66;100847.63;105586;1256;72539;-58
2023/08/24 08:56:50;;;;;;;3.40;2.10;;;;;;;24.13;65.32;100851.79;105936;1252;69062;-58
2023/08/24 08:59:17;;;;;;;2.90;1.70;;;;;;;24.22;64.40;100848.47;105621;1257;69175;-57
2023/08/24 09:01:45;;;;;;;3.30;1.70;;;;;;;24.33;64.41;100845.05;105678;1256;74623;-58
2023/08/24 09:04:12;;;;;;;3.30;1.70;;;;;;;24.43;63.47;100844.70;105699;1255;83411;-57
2023/08/24 09:06:39;;;;;;;4.00;2.00;;;;;;;24.48;63.20;100843.52;105729;1256;72842;-58
2023/08/24 09:09:07;;;;;;;3.80;1.70;;;;;;;24.61;63.27;100840.41;105930;1252;69010;-58
2023/08/24 09:11:34;;;;;;;2.70;1.60;;;;;;;24.74;62.97;100831.20;105851;1252;69247;-58
2023/08/24 09:14:01;;;;;;;5.70;2.20;;;;;;;24.84;62.36;100825.16;105640;1256;74539;-60
2023/08/24 09:16:32;;;;;;;3.40;2.00;;;;;;;24.93;61.97;100823.56;105637;1254;82227;-60
2023/08/24 09:18:59;;;;;;;4.20;2.00;;;;;;;25.05;61.16;100824.48;105738;1253;73006;-59
2023/08/24 09:21:26;;;;;;;3.60;1.80;;;;;;;25.14;60.41;100823.50;105868;1256;69106;-60
2023/08/24 09:23:55;;;;;;;2.60;1.50;;;;;;;25.23;59.47;100819.14;105635;1255;69188;-59
2023/08/24 09:26:29;;;;;;;6.60;1.80;;;;;;;25.28;58.76;100820.59;105595;1254;74604;-60
2023/08/24 09:28:57;;;;;;;2.40;1.80;;;;;;;25.36;58.23;100819.16;105599;1254;83519;-59
2023/08/24 09:31:37;;;;;;;7.30;1.90;;;;;;;25.44;58.34;100819.49;105539;1255;71918;-60
2023/08/24 09:34:05;;;;;;;4.50;1.70;;;;;;;25.57;57.54;100815.20;105616;1257;69180;-59
2023/08/24 09:36:34;;;;;;;2.90;1.80;;;;;;;25.68;57.17;100813.51;105653;1256;69118;-59
2023/08/24 09:39:04;;;;;;;4.70;2.20;;;;;;;25.76;56.64;100814.55;105688;1253;74329;-59
2023/08/24 09:41:45;;;;;;;3.60;1.80;;;;;;;25.92;56.58;100811.98;105617;1256;83563;-59
2023/08/24 09:44:12;;;;;;;2.90;2.10;;;;;;;26.14;56.03;100810.19;105674;1257;72743;-59
2023/08/24 09:46:40;;;;;;;2.10;1.70;;;;;;;26.30;55.60;100805.42;105645;1254;69172;-59
2023/08/24 09:49:09;;;;;;;10.10;1.70;;;;;;;26.43;55.06;100807.20;105634;1254;69170;-60
2023/08/24 09:51:38;;;;;;;3.10;2.00;;;;;;;26.59;54.92;100811.11;105660;1255;75057;-60
2023/08/24 09:54:09;;;;;;;3.40;1.80;;;;;;;26.74;54.25;100812.45;105634;1256;83219;-60
2023/08/24 09:56:40;;;;;;;3.10;2.00;;;;;;;26.86;53.70;100806.22;105615;1253;72837;-59
2023/08/24 09:59:17;;;;;;;5.40;2.00;;;;;;;26.96;53.17;100799.86;105552;1256;69077;-59
2023/08/24 10:01:47;;;;;;;3.70;1.90;;;;;;;27.09;53.08;100797.09;105779;1255;69271;-59
2023/08/24 10:04:22;;;;;;;2.50;1.70;;;;;;;27.28;52.74;100793.25;105661;1256;74999;-62
2023/08/24 10:06:56;;;;;;;3.60;1.80;;;;;;;27.49;52.05;100788.47;105706;1254;83548;-59
2023/08/24 10:09:29;;;;;;;4.30;1.70;;;;;;;27.67;51.91;100787.13;105629;1254;73681;-59
2023/08/24 10:11:59;;;;;;;4.10;1.90;;;;;;;27.87;51.00;100785.83;105638;1254;69082;-59
2023/08/24 10:15:06;;;;;;;4.90;1.60;;;;;;;28.07;50.81;100782.40;105642;1256;69777;-59
2023/08/24 10:17:35;;;;;;;3.60;2.00;;;;;;;28.41;50.31;100775.03;105654;1254;73661;-59
2023/08/24 10:20:06;;;;;;;2.70;1.70;;;;;;;28.62;49.70;100777.71;105597;1255;84190;-59
2023/08/24 10:22:35;;;;;;;2.50;1.70;;;;;;;28.75;49.38;100770.95;105621;1254;74264;-62
2023/08/24 10:25:03;;;;;;;6.70;1.80;;;;;;;28.98;48.85;100771.09;105663;1256;69630;-63
2023/08/24 10:27:30;;;;;;;3.80;1.90;;;;;;;29.18;48.25;100771.77;105659;1256;69186;-63
2023/08/24 10:29:59;;;;;;;2.40;1.70;;;;;;;29.50;48.19;100768.65;105551;1254;75001;-63
2023/08/24 10:32:27;;;;;;;3.40;1.90;;;;;;;29.72;47.82;100770.33;105607;1256;83286;-63
2023/08/24 10:34:54;;;;;;;2.60;1.80;;;;;;;29.83;47.08;100762.41;105659;1254;72541;-63
2023/08/24 10:37:26;;;;;;;3.80;1.70;;;;;;;29.96;46.57;100758.84;105631;1257;69189;-63
2023/08/24 10:39:54;;;;;;;4.60;1.70;;;;;;;30.23;46.53;100750.09;105643;1256;69109;-62
2023/08/24 10:42:21;;;;;;;7.10;1.90;;;;;;;30.62;46.26;100747.95;105657;1256;74715;-64
2023/08/24 10:44:49;;;;;;;7.10;1.90;;;;;;;31.00;46.14;100741.05;105517;1256;83249;-63
2023/08/24 10:47:19;;;;;;;2.80;1.60;;;;;;;31.35;45.44;100737.61;105647;1252;73627;-63
2023/08/24 10:49:55;;;;;;;2.30;1.40;;;;;;;31.65;44.92;100732.51;105625;1253;69481;-63
2023/08/24 10:52:29;;;;;;;3.10;1.40;;;;;;;31.77;44.13;100729.58;105581;1256;69201;-63
2023/08/24 10:54:56;;;;;;;4.60;1.30;;;;;;;31.76;43.48;100722.23;105554;1254;74824;-64
2023/08/24 10:57:27;;;;;;;2.80;1.50;;;;;;;31.83;43.70;100713.91;105491;1254;82341;-64
2023/08/24 11:00:13;;;;;;;4.00;1.60;;;;;;;31.94;43.56;100706.82;105518;1254;72672;-64
2023/08/24 11:02:46;;;;;;;2.40;1.50;;;;;;;31.80;43.00;100704.16;105551;1254;69200;-64
2023/08/24 11:05:18;;;;;;;4.40;1.80;;;;;;;31.44;42.70;100706.89;105564;1254;69160;-64
2023/08/24 11:08:02;;;;;;;2.90;1.40;;;;;;;31.11;42.74;100699.45;105584;1257;74939;-64
2023/08/24 11:10:42;;;;;;;5.10;2.10;;;;;;;30.77;42.37;100698.27;105518;1254;83098;-64
2023/08/24 11:13:14;;;;;;;5.20;1.50;;;;;;;30.34;42.68;100700.69;105591;1254;73799;-64
2023/08/24 11:15:54;;;;;;;3.80;1.70;;;;;;;30.08;42.85;100701.80;105551;1256;69087;-64
2023/08/24 11:18:23;;;;;;;2.80;1.70;;;;;;;29.81;43.03;100703.77;105459;1253;69125;-63
2023/08/24 11:20:50;;;;;;;;;;;;;;;29.53;43.19;100709.82;105550;1256;73820;-63
2023/08/24 11:23:18;;;;;;;4.10;1.80;;;;;;;29.27;43.49;100705.10;105469;1256;83322;-63